createdAt,value
2022-12-31T00:00:56.356Z,5.38
2022-12-31T00:03:02.362Z,4.97
2022-12-31T00:05:07.683Z,6.00
2022-12-31T00:07:10.977Z,7.22
2022-12-31T00:09:14.333Z,6.38
2022-12-31T00:11:17.646Z,6.85
2022-12-31T00:13:21.693Z,7.07
2022-12-31T00:15:26.262Z,5.15
2022-12-31T00:17:29.730Z,6.10
2022-12-31T00:19:33.363Z,5.20
2022-12-31T00:21:38.602Z,5.07
2022-12-31T00:23:42.088Z,5.53
2022-12-31T00:25:45.502Z,4.47
2022-12-31T00:27:49.629Z,4.68
2022-12-31T00:29:53.349Z,6.28
2022-12-31T00:32:01.659Z,4.93
2022-12-31T00:34:07.194Z,5.45
2022-12-31T00:36:14.018Z,4.88
2022-12-31T00:38:17.464Z,4.68
2022-12-31T00:40:21.169Z,5.20
2022-12-31T00:42:24.833Z,4.30
2022-12-31T00:44:35.142Z,3.42
2022-12-31T00:48:42.737Z,4.78
2022-12-31T00:50:46.521Z,3.42
2022-12-31T00:52:49.758Z,3.97
2022-12-31T00:54:52.955Z,3.25
2022-12-31T00:56:56.207Z,4.45
2022-12-31T00:59:00.468Z,4.28
2022-12-31T01:01:10.650Z,4.82
2022-12-31T01:03:14.027Z,4.85
2022-12-31T01:05:18.793Z,5.53
2022-12-31T01:07:22.012Z,4.57
2022-12-31T01:09:25.282Z,5.57
2022-12-31T01:11:29.577Z,5.05
2022-12-31T01:13:32.989Z,4.28
2022-12-31T01:15:37.277Z,4.32
2022-12-31T01:17:40.587Z,3.95
2022-12-31T01:19:44.697Z,4.50
2022-12-31T01:21:51.267Z,4.35
2022-12-31T01:23:54.604Z,4.03
2022-12-31T01:25:57.981Z,4.10
2022-12-31T01:28:01.306Z,4.45
2022-12-31T01:30:05.743Z,4.13
2022-12-31T01:32:08.994Z,3.92
2022-12-31T01:34:12.275Z,4.60
2022-12-31T01:36:23.373Z,4.03
2022-12-31T01:38:29.948Z,3.83
2022-12-31T01:40:38.091Z,4.30
2022-12-31T01:42:41.315Z,4.65
2022-12-31T01:44:52.441Z,4.25
2022-12-31T01:46:58.415Z,4.30
2022-12-31T01:49:04.561Z,4.05
2022-12-31T01:51:10.928Z,4.68
2022-12-31T01:53:15.852Z,4.72
2022-12-31T01:55:24.638Z,4.13
2022-12-31T01:57:28.877Z,4.78
2022-12-31T01:59:34.105Z,4.50
2022-12-31T02:01:39.887Z,4.80
2022-12-31T02:03:43.866Z,4.30
2022-12-31T02:05:52.093Z,3.83
2022-12-31T02:07:56.148Z,4.40
2022-12-31T02:10:00.138Z,4.30
2022-12-31T02:12:05.096Z,5.18
2022-12-31T02:14:12.808Z,4.25
2022-12-31T02:16:23.805Z,4.80
2022-12-31T02:18:35.877Z,3.90
2022-12-31T02:21:12.241Z,4.80
2022-12-31T02:23:53.699Z,5.43
2022-12-31T02:26:22.344Z,4.32
2022-12-31T02:28:43.556Z,4.60
2022-12-31T02:30:51.564Z,4.93
2022-12-31T02:33:15.416Z,4.82
2022-12-31T02:35:26.006Z,5.10
2022-12-31T02:37:31.937Z,4.00
2022-12-31T02:39:37.394Z,4.38
2022-12-31T02:41:52.670Z,3.92
2022-12-31T02:43:55.865Z,4.03
2022-12-31T02:46:14.927Z,4.13
2022-12-31T02:48:27.616Z,3.58
2022-12-31T02:50:42.332Z,4.38
2022-12-31T02:52:55.555Z,4.70
2022-12-31T02:55:06.475Z,4.78
2022-12-31T02:57:21.638Z,4.57
2022-12-31T02:59:49.342Z,4.20
2022-12-31T03:02:19.667Z,3.85
2022-12-31T03:04:36.440Z,4.28
2022-12-31T03:06:40.317Z,4.07
2022-12-31T03:08:57.776Z,3.88
2022-12-31T03:11:20.979Z,4.25
2022-12-31T03:13:23.695Z,4.68
2022-12-31T03:15:29.208Z,3.60
2022-12-31T03:17:33.994Z,3.70
2022-12-31T03:19:54.652Z,4.43
2022-12-31T03:22:11.778Z,5.05
2022-12-31T03:24:32.550Z,4.55
2022-12-31T03:26:35.908Z,5.03
2022-12-31T03:28:41.131Z,4.88
2022-12-31T03:30:46.935Z,5.78
2022-12-31T03:32:52.789Z,5.38
2022-12-31T03:34:56.544Z,5.15
2022-12-31T03:36:59.748Z,5.13
2022-12-31T03:39:03.025Z,4.90
2022-12-31T03:41:06.586Z,4.65
2022-12-31T03:43:10.274Z,5.05
2022-12-31T03:45:14.442Z,4.22
2022-12-31T03:47:17.681Z,5.53
2022-12-31T03:49:22.402Z,4.57
2022-12-31T03:51:26.591Z,4.13
2022-12-31T03:53:29.819Z,4.53
2022-12-31T03:55:33.140Z,4.95
2022-12-31T03:57:36.612Z,4.45
2022-12-31T03:59:40.550Z,4.13
2022-12-31T04:01:43.894Z,5.18
2022-12-31T04:03:47.279Z,3.90
2022-12-31T04:05:55.805Z,5.10
2022-12-31T04:07:59.037Z,4.75
2022-12-31T04:10:02.266Z,4.70
2022-12-31T04:12:06.097Z,4.97
2022-12-31T04:14:09.424Z,4.45
2022-12-31T04:16:12.719Z,5.53
2022-12-31T04:18:15.969Z,4.82
2022-12-31T04:20:19.303Z,4.82
2022-12-31T04:22:23.997Z,5.03
2022-12-31T04:24:27.568Z,5.03
2022-12-31T04:26:30.901Z,4.60
2022-12-31T04:28:34.703Z,5.07
2022-12-31T04:30:37.951Z,5.00
2022-12-31T04:32:41.747Z,4.90
2022-12-31T04:34:44.932Z,4.75
2022-12-31T04:36:48.245Z,5.40
2022-12-31T04:38:52.976Z,5.95
2022-12-31T04:41:13.804Z,5.68
2022-12-31T04:43:17.085Z,5.20
2022-12-31T04:45:20.322Z,5.60
2022-12-31T04:47:24.164Z,5.85
2022-12-31T04:49:27.498Z,5.80
2022-12-31T04:51:32.032Z,5.95
2022-12-31T04:53:35.240Z,5.20
2022-12-31T04:55:41.976Z,5.85
2022-12-31T04:57:45.171Z,5.97
2022-12-31T04:59:48.376Z,5.90
2022-12-31T05:01:51.666Z,5.82
2022-12-31T05:03:54.981Z,5.30
2022-12-31T05:06:02.641Z,6.18
2022-12-31T05:08:05.995Z,5.95
2022-12-31T05:10:09.762Z,5.75
2022-12-31T05:12:14.336Z,5.38
2022-12-31T05:14:17.565Z,4.78
2022-12-31T05:16:20.824Z,5.20
2022-12-31T05:18:24.370Z,4.82
2022-12-31T05:20:27.800Z,4.32
2022-12-31T05:22:31.131Z,4.53
2022-12-31T05:24:34.401Z,5.13
2022-12-31T05:26:37.679Z,4.95
2022-12-31T05:28:42.359Z,5.22
2022-12-31T05:30:46.479Z,5.70
2022-12-31T05:32:49.709Z,5.82
2022-12-31T05:34:53.704Z,5.82
2022-12-31T05:36:56.977Z,5.78
2022-12-31T05:39:00.372Z,4.80
2022-12-31T05:41:05.471Z,5.00
2022-12-31T05:43:10.020Z,5.22
2022-12-31T05:45:15.552Z,5.05
2022-12-31T05:47:19.023Z,5.18
2022-12-31T05:49:22.303Z,5.03
2022-12-31T05:51:26.524Z,4.90
2022-12-31T05:53:29.867Z,5.15
2022-12-31T05:55:33.215Z,6.22
2022-12-31T05:57:36.498Z,6.15
2022-12-31T05:59:39.794Z,5.80
2022-12-31T06:01:44.473Z,6.57
2022-12-31T06:03:47.863Z,4.47
2022-12-31T06:05:51.107Z,4.15
2022-12-31T06:07:54.443Z,5.35
2022-12-31T06:09:57.745Z,5.35
2022-12-31T06:12:01.024Z,3.67
2022-12-31T06:14:04.625Z,4.13
2022-12-31T06:16:08.651Z,4.53
2022-12-31T06:18:13.426Z,4.18
2022-12-31T06:20:16.819Z,3.53
2022-12-31T06:22:20.049Z,4.10
2022-12-31T06:24:23.330Z,3.15
2022-12-31T06:26:26.505Z,3.50
2022-12-31T06:28:29.800Z,3.08
2022-12-31T06:30:33.514Z,2.65
2022-12-31T06:32:36.759Z,3.25
2022-12-31T06:34:41.549Z,2.92
2022-12-31T06:36:44.826Z,3.17
2022-12-31T06:38:48.062Z,2.40
2022-12-31T06:40:51.359Z,2.33
2022-12-31T06:42:59.652Z,2.22
2022-12-31T06:45:03.464Z,2.00
2022-12-31T06:47:06.857Z,2.33
2022-12-31T06:49:10.091Z,2.10
2022-12-31T06:51:17.821Z,1.13
2022-12-31T06:53:21.165Z,1.30
2022-12-31T06:55:25.145Z,1.55
2022-12-31T06:57:29.070Z,1.30
2022-12-31T06:59:32.948Z,1.35
2022-12-31T07:01:50.619Z,2.08
2022-12-31T07:04:01.959Z,1.40
2022-12-31T07:06:14.929Z,1.55
2022-12-31T07:08:31.505Z,1.75
2022-12-31T07:10:43.162Z,2.00
2022-12-31T07:13:00.837Z,1.50
2022-12-31T07:15:12.921Z,2.03
2022-12-31T07:17:25.802Z,1.55
2022-12-31T07:19:42.298Z,1.73
2022-12-31T07:21:45.982Z,1.50
2022-12-31T07:23:51.264Z,1.98
2022-12-31T07:26:03.246Z,2.25
2022-12-31T07:28:19.286Z,2.40
2022-12-31T07:30:25.860Z,1.90
2022-12-31T07:32:42.142Z,2.30
2022-12-31T07:34:52.303Z,2.63
2022-12-31T07:37:04.889Z,1.70
2022-12-31T07:39:14.824Z,1.42
2022-12-31T07:41:24.517Z,1.50
2022-12-31T07:43:34.511Z,1.73
2022-12-31T07:45:48.087Z,2.00
2022-12-31T07:47:51.877Z,1.67
2022-12-31T07:49:56.363Z,1.45
2022-12-31T07:52:00.348Z,1.50
2022-12-31T07:54:06.431Z,1.60
2022-12-31T07:56:15.184Z,1.25
2022-12-31T07:58:23.723Z,1.60
2022-12-31T08:00:28.153Z,1.77
2022-12-31T08:02:51.795Z,1.70
2022-12-31T08:07:12.686Z,1.75
2022-12-31T08:09:31.222Z,1.80
2022-12-31T08:11:44.539Z,1.60
2022-12-31T08:15:51.520Z,1.77
2022-12-31T08:17:55.543Z,2.20
2022-12-31T08:19:59.317Z,1.88
2022-12-31T08:22:19.441Z,1.90
2022-12-31T08:24:31.975Z,1.83
2022-12-31T08:26:41.713Z,1.98
2022-12-31T08:29:15.735Z,1.80
2022-12-31T08:31:22.669Z,2.33
2022-12-31T08:33:31.014Z,2.33
2022-12-31T08:35:48.882Z,2.72
2022-12-31T08:38:02.902Z,3.33
2022-12-31T08:40:21.088Z,3.08
2022-12-31T08:42:32.596Z,3.15
2022-12-31T08:44:47.232Z,3.40
2022-12-31T08:46:58.761Z,3.20
2022-12-31T08:49:02.621Z,2.72
2022-12-31T08:51:06.651Z,2.25
2022-12-31T08:53:10.477Z,2.13
2022-12-31T08:55:16.536Z,2.38
2022-12-31T08:57:29.041Z,2.40
2022-12-31T08:59:45.353Z,2.73
2022-12-31T09:02:20.198Z,2.97
2022-12-31T09:04:31.369Z,5.97
2022-12-31T09:06:39.484Z,7.03
2022-12-31T09:08:51.367Z,5.78
2022-12-31T09:11:02.195Z,3.40
2022-12-31T09:13:13.548Z,3.58
2022-12-31T09:15:26.743Z,3.28
2022-12-31T09:17:47.119Z,4.93
2022-12-31T09:19:51.295Z,4.63
2022-12-31T09:21:55.491Z,3.75
2022-12-31T09:24:03.136Z,3.53
2022-12-31T09:26:24.796Z,3.65
2022-12-31T09:28:38.408Z,3.40
2022-12-31T09:30:52.733Z,5.72
2022-12-31T09:33:02.431Z,3.42
2022-12-31T09:35:14.810Z,3.85
2022-12-31T09:37:24.798Z,4.95
2022-12-31T09:39:37.827Z,3.40
2022-12-31T09:42:02.516Z,3.33
2022-12-31T09:44:57.270Z,3.38
2022-12-31T09:47:35.709Z,3.17
2022-12-31T09:50:11.462Z,3.40
2022-12-31T09:52:27.048Z,2.40
2022-12-31T09:54:49.192Z,2.63
2022-12-31T09:57:09.190Z,1.50
2022-12-31T09:59:21.605Z,1.90
2022-12-31T10:01:37.988Z,1.58
2022-12-31T10:04:08.669Z,2.92
2022-12-31T10:06:26.543Z,1.85
2022-12-31T10:08:40.380Z,2.15
2022-12-31T10:10:53.666Z,1.80
2022-12-31T10:13:29.129Z,2.10
2022-12-31T10:15:47.900Z,2.88
2022-12-31T10:18:05.463Z,1.95
2022-12-31T10:20:44.901Z,1.85
2022-12-31T10:23:11.749Z,1.98
2022-12-31T10:25:38.401Z,1.65
2022-12-31T10:27:53.313Z,1.73
2022-12-31T10:30:04.076Z,2.38
2022-12-31T10:32:18.872Z,1.75
2022-12-31T10:34:28.457Z,2.30
2022-12-31T10:36:50.363Z,2.38
2022-12-31T10:39:10.459Z,1.70
2022-12-31T10:41:57.501Z,2.10
2022-12-31T10:44:40.921Z,2.10
2022-12-31T10:47:25.875Z,2.57
2022-12-31T10:50:12.940Z,2.80
2022-12-31T10:53:00.340Z,2.95
2022-12-31T10:55:37.258Z,2.78
2022-12-31T10:58:06.724Z,2.35
2022-12-31T11:00:18.864Z,2.38
2022-12-31T11:02:59.042Z,2.58
2022-12-31T11:05:32.072Z,2.25
2022-12-31T11:08:08.329Z,2.80
2022-12-31T11:10:53.701Z,2.67
2022-12-31T11:13:30.478Z,1.67
2022-12-31T11:15:50.383Z,2.28
2022-12-31T11:18:05.715Z,2.95
2022-12-31T11:20:28.465Z,2.67
2022-12-31T11:22:49.708Z,9.13
2022-12-31T11:25:08.039Z,13.65
2022-12-31T11:27:27.604Z,5.05
2022-12-31T11:29:44.668Z,2.88
2022-12-31T11:32:14.647Z,2.80
2022-12-31T11:34:44.900Z,2.65
2022-12-31T11:37:04.231Z,2.53
2022-12-31T11:39:32.372Z,2.95
2022-12-31T11:41:48.162Z,7.20
2022-12-31T11:44:03.401Z,2.85
2022-12-31T11:46:25.904Z,2.70
2022-12-31T11:48:36.786Z,7.03
2022-12-31T11:50:50.364Z,3.13
2022-12-31T11:53:01.969Z,4.90
2022-12-31T11:55:24.840Z,4.47
2022-12-31T11:57:36.247Z,4.77
2022-12-31T11:59:40.099Z,2.95
2022-12-31T12:01:53.982Z,3.40
2022-12-31T12:03:58.009Z,2.80
2022-12-31T12:06:01.811Z,3.60
2022-12-31T12:08:05.564Z,3.28
2022-12-31T12:10:21.563Z,2.95
2022-12-31T12:12:25.373Z,3.50
2022-12-31T12:14:36.844Z,3.28
2022-12-31T12:16:41.174Z,3.25
2022-12-31T12:18:47.789Z,3.90
2022-12-31T12:20:51.934Z,3.30
2022-12-31T12:22:58.197Z,3.00
2022-12-31T12:25:06.123Z,3.15
2022-12-31T12:27:23.871Z,3.00
2022-12-31T12:29:31.071Z,3.75
2022-12-31T12:31:38.387Z,4.53
2022-12-31T12:33:44.972Z,3.22
2022-12-31T12:35:49.540Z,3.45
2022-12-31T12:38:01.986Z,3.10
2022-12-31T12:40:09.609Z,3.07
2022-12-31T12:42:16.136Z,2.42
2022-12-31T12:44:20.057Z,2.95
2022-12-31T12:46:32.931Z,2.63
2022-12-31T12:48:42.104Z,2.72
2022-12-31T12:50:47.902Z,2.67
2022-12-31T12:53:24.498Z,4.28
2022-12-31T12:55:39.045Z,4.45
2022-12-31T12:57:50.619Z,5.88
2022-12-31T13:00:16.069Z,4.88
2022-12-31T13:02:54.049Z,4.50
2022-12-31T13:05:15.626Z,4.05
2022-12-31T13:07:33.037Z,4.10
2022-12-31T13:09:50.394Z,4.10
2022-12-31T13:12:07.970Z,3.92
2022-12-31T13:14:20.488Z,3.45
2022-12-31T13:16:35.052Z,3.80
2022-12-31T13:18:53.220Z,3.45
2022-12-31T13:21:09.333Z,4.85
2022-12-31T13:23:21.227Z,5.07
2022-12-31T13:25:32.595Z,4.78
2022-12-31T13:27:39.807Z,5.00
2022-12-31T13:29:45.355Z,4.45
2022-12-31T13:31:52.578Z,3.70
2022-12-31T13:34:01.607Z,5.47
2022-12-31T13:36:10.502Z,2.95
2022-12-31T13:38:23.451Z,2.67
2022-12-31T13:40:32.325Z,3.28
2022-12-31T13:42:43.993Z,2.92
2022-12-31T13:44:53.428Z,4.45
2022-12-31T13:47:02.987Z,3.47
2022-12-31T13:49:17.331Z,4.22
2022-12-31T13:51:36.205Z,4.47
2022-12-31T13:53:48.782Z,4.03
2022-12-31T13:55:59.107Z,3.10
2022-12-31T13:58:13.611Z,3.00
2022-12-31T14:00:24.764Z,4.28
2022-12-31T14:02:38.210Z,8.23
2022-12-31T14:04:52.187Z,3.72
2022-12-31T14:07:03.941Z,4.88
2022-12-31T14:09:10.902Z,4.25
2022-12-31T14:11:24.002Z,3.33
2022-12-31T14:13:43.847Z,3.35
2022-12-31T14:16:00.930Z,4.28
2022-12-31T14:18:11.650Z,4.05
2022-12-31T14:20:23.539Z,3.15
2022-12-31T14:22:36.655Z,2.70
2022-12-31T14:24:46.212Z,2.25
2022-12-31T14:26:54.165Z,2.63
2022-12-31T14:29:09.465Z,3.15
2022-12-31T14:31:25.824Z,2.70
2022-12-31T14:33:51.448Z,3.50
2022-12-31T14:36:10.569Z,2.72
2022-12-31T14:38:28.386Z,4.82
2022-12-31T14:40:47.171Z,2.97
2022-12-31T14:43:05.119Z,3.25
2022-12-31T14:45:26.184Z,3.67
2022-12-31T14:47:42.879Z,3.80
2022-12-31T14:49:55.821Z,3.90
2022-12-31T14:52:10.451Z,3.05
2022-12-31T14:54:35.539Z,3.78
2022-12-31T14:56:43.355Z,2.80
2022-12-31T14:58:57.568Z,3.35
2022-12-31T15:01:03.525Z,4.13
2022-12-31T15:03:23.874Z,3.05
2022-12-31T15:05:29.818Z,4.53
2022-12-31T15:07:44.465Z,3.50
2022-12-31T15:10:12.241Z,3.03
2022-12-31T15:12:44.454Z,3.45
2022-12-31T15:15:09.777Z,3.20
2022-12-31T15:17:25.571Z,3.38
2022-12-31T15:20:05.288Z,3.70
2022-12-31T15:22:22.846Z,3.97
2022-12-31T15:24:30.815Z,5.97
2022-12-31T15:26:36.460Z,3.65
2022-12-31T15:28:42.303Z,3.65
2022-12-31T15:30:49.043Z,4.07
2022-12-31T15:32:53.341Z,4.03
2022-12-31T15:35:04.163Z,3.28
2022-12-31T15:37:29.988Z,4.13
2022-12-31T15:39:44.784Z,3.80
2022-12-31T15:42:35.684Z,4.63
2022-12-31T15:44:25.232Z,3.65
2022-12-31T15:46:33.338Z,3.90
2022-12-31T15:48:47.910Z,5.85
2022-12-31T15:51:00.756Z,5.32
2022-12-31T15:53:06.816Z,5.93
2022-12-31T15:55:23.762Z,5.82
2022-12-31T15:57:33.898Z,5.10
2022-12-31T15:59:38.479Z,6.18
2022-12-31T16:01:44.549Z,5.07
2022-12-31T16:03:51.550Z,4.30
2022-12-31T16:06:02.055Z,4.57
2022-12-31T16:08:06.301Z,4.78
2022-12-31T16:10:11.399Z,4.68
2022-12-31T16:12:23.087Z,3.75
2022-12-31T16:14:36.640Z,5.88
2022-12-31T16:16:40.381Z,6.78
2022-12-31T16:18:45.789Z,17.75
2022-12-31T16:20:52.034Z,13.43
2022-12-31T16:22:58.896Z,20.85
2022-12-31T16:25:29.737Z,22.15
2022-12-31T16:27:28.658Z,6.72
2022-12-31T16:29:37.203Z,7.70
2022-12-31T16:31:41.377Z,8.65
2022-12-31T16:33:45.687Z,17.20
2022-12-31T16:35:57.991Z,13.68
2022-12-31T16:38:12.621Z,12.02
2022-12-31T16:40:22.234Z,11.63
2022-12-31T16:42:27.975Z,11.57
2022-12-31T16:44:33.238Z,14.02
2022-12-31T16:46:38.010Z,19.73
2022-12-31T16:48:42.001Z,12.85
2022-12-31T16:50:47.276Z,12.98
2022-12-31T16:52:54.316Z,13.15
2022-12-31T16:54:58.922Z,13.35
2022-12-31T16:57:03.607Z,14.20
2022-12-31T16:59:14.615Z,14.57
2022-12-31T17:01:22.266Z,15.77
2022-12-31T17:03:29.788Z,16.70
2022-12-31T17:05:35.480Z,16.02
2022-12-31T17:07:43.092Z,18.05
2022-12-31T17:09:46.891Z,20.27
2022-12-31T17:11:56.047Z,21.90
2022-12-31T17:14:13.365Z,23.27
2022-12-31T17:16:20.366Z,23.73
2022-12-31T17:18:27.178Z,22.85
2022-12-31T17:20:33.323Z,19.35
2022-12-31T17:22:43.302Z,19.23
2022-12-31T17:24:50.679Z,19.65
2022-12-31T17:26:55.071Z,20.20
2022-12-31T17:29:00.684Z,21.38
2022-12-31T17:31:33.518Z,22.48
2022-12-31T17:33:37.523Z,21.42
2022-12-31T17:35:43.445Z,21.13
2022-12-31T17:37:47.303Z,21.42
2022-12-31T17:39:52.751Z,19.90
2022-12-31T17:41:59.355Z,21.05
2022-12-31T17:44:03.068Z,20.20
2022-12-31T17:46:12.527Z,20.38
2022-12-31T17:48:19.883Z,21.73
2022-12-31T17:50:26.316Z,21.52
2022-12-31T17:52:30.332Z,20.30
2022-12-31T17:54:34.380Z,22.63
2022-12-31T17:56:38.150Z,29.85
2022-12-31T17:58:46.741Z,28.90
2022-12-31T18:00:50.765Z,72.93
2022-12-31T18:02:54.519Z,35.28
2022-12-31T18:04:59.789Z,39.67
2022-12-31T18:07:03.673Z,40.15
2022-12-31T18:09:08.268Z,47.92
2022-12-31T18:11:17.917Z,46.78
2022-12-31T18:13:24.988Z,47.72
2022-12-31T18:15:29.220Z,42.13
2022-12-31T18:17:34.040Z,38.58
2022-12-31T18:20:03.709Z,53.13
2022-12-31T18:22:04.133Z,38.45
2022-12-31T18:24:11.326Z,37.30
2022-12-31T18:26:17.923Z,38.42
2022-12-31T18:28:22.671Z,40.00
2022-12-31T18:30:27.516Z,42.72
2022-12-31T18:32:33.251Z,38.35
2022-12-31T18:34:36.979Z,34.97
2022-12-31T18:36:40.708Z,29.42
2022-12-31T18:38:46.790Z,26.27
2022-12-31T18:40:56.638Z,36.55
2022-12-31T18:43:04.954Z,90.05
2022-12-31T18:45:16.461Z,42.95
2022-12-31T18:47:23.465Z,36.67
2022-12-31T18:49:27.209Z,33.47
2022-12-31T18:51:32.368Z,30.70
2022-12-31T18:53:36.612Z,30.88
2022-12-31T18:55:43.378Z,32.22
2022-12-31T18:57:47.413Z,33.25
2022-12-31T18:59:51.690Z,37.63
2022-12-31T19:01:55.772Z,81.93
2022-12-31T19:04:02.253Z,79.07
2022-12-31T19:06:06.185Z,48.97
2022-12-31T19:08:09.852Z,46.35
2022-12-31T19:10:15.437Z,38.13
2022-12-31T19:12:21.559Z,33.40
2022-12-31T19:14:26.948Z,41.35
2022-12-31T19:16:30.669Z,47.85
2022-12-31T19:18:34.366Z,46.97
2022-12-31T19:20:38.616Z,47.20
2022-12-31T19:22:42.222Z,49.13
2022-12-31T19:24:45.704Z,49.60
2022-12-31T19:26:49.623Z,49.83
2022-12-31T19:28:54.891Z,54.28
2022-12-31T19:30:58.582Z,57.83
2022-12-31T19:33:02.812Z,55.92
2022-12-31T19:35:07.057Z,55.20
2022-12-31T19:37:13.357Z,46.78
2022-12-31T19:39:19.364Z,37.88
2022-12-31T19:41:22.870Z,42.38
2022-12-31T19:43:26.605Z,48.92
2022-12-31T19:45:32.240Z,55.83
2022-12-31T19:47:36.041Z,73.65
2022-12-31T19:49:39.796Z,59.13
2022-12-31T19:51:43.872Z,51.67
2022-12-31T19:53:48.129Z,44.05
2022-12-31T19:55:52.575Z,42.67
2022-12-31T19:57:55.989Z,43.97
2022-12-31T19:59:59.533Z,45.78
2022-12-31T20:02:04.651Z,50.40
2022-12-31T20:04:08.688Z,49.28
2022-12-31T20:06:12.333Z,49.17
2022-12-31T20:08:17.265Z,51.70
2022-12-31T20:10:21.051Z,55.65
2022-12-31T20:12:24.745Z,66.97
2022-12-31T20:14:28.262Z,52.45
2022-12-31T20:16:34.246Z,56.20
2022-12-31T20:18:39.754Z,47.13
2022-12-31T20:20:53.445Z,46.67
2022-12-31T20:22:59.653Z,45.58
2022-12-31T20:25:03.439Z,58.60
2022-12-31T20:27:08.573Z,55.25
2022-12-31T20:29:14.547Z,105.97
2022-12-31T20:31:21.243Z,98.45
2022-12-31T20:33:24.864Z,83.85
2022-12-31T20:35:29.859Z,86.35
2022-12-31T20:37:33.886Z,74.63
2022-12-31T20:39:38.858Z,77.32
2022-12-31T20:41:42.366Z,82.18
2022-12-31T20:43:46.458Z,97.22
2022-12-31T20:45:50.149Z,91.80
2022-12-31T20:47:54.085Z,56.33
2022-12-31T20:50:13.155Z,56.03
2022-12-31T20:52:18.209Z,64.28
2022-12-31T20:54:21.894Z,57.25
2022-12-31T20:56:26.746Z,59.42
2022-12-31T20:58:30.351Z,56.72
2022-12-31T21:00:33.964Z,54.72
2022-12-31T21:02:42.572Z,54.55
2022-12-31T21:04:46.993Z,54.58
2022-12-31T21:06:52.473Z,54.95
2022-12-31T21:08:57.774Z,58.53
2022-12-31T21:11:01.576Z,56.30
2022-12-31T21:13:04.375Z,58.78
2022-12-31T21:15:08.942Z,60.20
2022-12-31T21:17:12.577Z,61.83
2022-12-31T21:19:16.215Z,60.90
2022-12-31T21:21:19.986Z,59.10
2022-12-31T21:23:23.511Z,66.05
2022-12-31T21:25:28.251Z,67.50
2022-12-31T21:27:32.470Z,67.68
2022-12-31T21:29:50.375Z,70.93
2022-12-31T21:32:00.514Z,63.47
2022-12-31T21:34:03.948Z,62.67
2022-12-31T21:36:08.108Z,65.18
2022-12-31T21:38:11.613Z,63.72
2022-12-31T21:40:15.281Z,59.33
2022-12-31T21:42:20.191Z,55.95
2022-12-31T21:44:26.088Z,61.40
2022-12-31T21:46:29.738Z,54.50
2022-12-31T21:48:33.650Z,55.33
2022-12-31T21:50:37.252Z,51.05
2022-12-31T21:52:40.832Z,47.88
2022-12-31T21:55:01.713Z,51.20
2022-12-31T21:57:06.748Z,60.38
2022-12-31T21:59:29.103Z,48.70
2022-12-31T22:01:50.217Z,51.83
2022-12-31T22:03:53.875Z,58.67
2022-12-31T22:06:00.469Z,73.75
2022-12-31T22:08:04.032Z,67.88
2022-12-31T22:10:08.461Z,108.07
2022-12-31T22:12:11.981Z,66.43
2022-12-31T22:14:16.904Z,54.38
2022-12-31T22:16:21.420Z,53.55
2022-12-31T22:18:25.617Z,54.95
2022-12-31T22:20:29.304Z,55.03
2022-12-31T22:22:33.059Z,54.85
2022-12-31T22:24:36.635Z,51.53
2022-12-31T22:26:44.777Z,49.65
2022-12-31T22:28:50.557Z,46.97
2022-12-31T22:30:55.411Z,47.25
2022-12-31T22:32:58.876Z,44.13
2022-12-31T22:35:02.422Z,43.78
2022-12-31T22:37:35.326Z,41.42
2022-12-31T22:41:48.376Z,24.50
2022-12-31T22:44:00.477Z,29.48
2022-12-31T22:46:13.845Z,28.88
2022-12-31T22:48:17.322Z,26.33
2022-12-31T22:50:20.868Z,24.45
2022-12-31T22:52:24.552Z,21.73
2022-12-31T22:54:28.159Z,15.75
2022-12-31T22:56:31.633Z,12.50
2022-12-31T22:58:35.960Z,6.85
2022-12-31T23:00:41.243Z,5.90
2022-12-31T23:02:46.361Z,12.15
2022-12-31T23:04:49.881Z,5.30
2022-12-31T23:06:53.410Z,7.90
2022-12-31T23:09:14.349Z,7.68
2022-12-31T23:11:17.863Z,3.25
2022-12-31T23:13:40.421Z,32.60
2022-12-31T23:16:03.628Z,57.40
2022-12-31T23:18:25.641Z,4.65
2022-12-31T23:20:46.552Z,3.97
2022-12-31T23:23:10.177Z,4.97
2022-12-31T23:27:16.747Z,7.95
2022-12-31T23:29:20.240Z,8.30
2022-12-31T23:31:26.033Z,3.38
2022-12-31T23:33:31.106Z,4.32
2022-12-31T23:35:34.743Z,11.32
2022-12-31T23:37:38.268Z,3.90
2022-12-31T23:39:42.122Z,3.30
2022-12-31T23:41:45.744Z,4.32
2022-12-31T23:43:49.717Z,4.35
2022-12-31T23:45:53.996Z,3.92
2022-12-31T23:47:57.540Z,2.50
2022-12-31T23:50:02.414Z,2.63
2022-12-31T23:52:05.968Z,5.07
2022-12-31T23:54:09.629Z,2.33
2022-12-31T23:56:23.325Z,2.08
2022-12-31T23:58:27.267Z,1.67
